Time;durP1;ratioP1;P1;durP2;ratioP2;P2;SDS_P1;SDS_P2;PMS_P1;PMS_P2;Temp;Humidity;BMP_temperature;BMP_pressure;BME280_temperature;BME280_humidity;BME280_pressure;Samples;Min_cycle;Max_cycle;Signal;HPM_P1;HPM_P2
2020/12/05 00:04:07;;;;;;;2.03;1.02;;;16.20;65.90;;;;;;10457056;28;20106;-57
2020/12/05 00:09:08;;;;;;;1.40;1.00;;;16.20;65.90;;;;;;10455819;28;20116;-57
2020/12/05 00:14:08;;;;;;;2.45;0.95;;;16.20;65.90;;;;;;10446195;28;20111;-57
2020/12/05 00:19:11;;;;;;;1.88;1.08;;;16.20;65.70;;;;;;10456815;28;20386;-57
2020/12/05 00:24:11;;;;;;;2.22;1.10;;;16.20;65.90;;;;;;10456294;28;20020;-57
2020/12/05 00:29:12;;;;;;;3.13;1.10;;;16.20;65.80;;;;;;10455400;28;20137;-56
2020/12/05 00:34:13;;;;;;;2.15;0.90;;;16.10;65.80;;;;;;10454301;28;20115;-56
2020/12/05 00:39:13;;;;;;;1.95;1.00;;;16.10;65.70;;;;;;10455424;28;20033;-56
2020/12/05 00:44:14;;;;;;;1.63;1.00;;;16.10;65.80;;;;;;10451799;28;20061;-56
2020/12/05 00:49:15;;;;;;;1.83;0.88;;;16.10;65.80;;;;;;10454539;28;20115;-57
2020/12/05 00:54:16;;;;;;;1.00;0.70;;;16.10;65.90;;;;;;10455361;28;20025;-57
2020/12/05 00:59:16;;;;;;;1.80;0.90;;;16.00;65.90;;;;;;10455106;28;20033;-57
2020/12/05 01:04:17;;;;;;;1.52;0.93;;;16.00;65.80;;;;;;10455436;28;20095;-56
2020/12/05 01:09:18;;;;;;;1.48;0.90;;;16.00;65.90;;;;;;10445935;28;20523;-57
2020/12/05 01:14:18;;;;;;;1.23;0.90;;;16.00;65.80;;;;;;10455077;28;20105;-57
2020/12/05 01:19:19;;;;;;;2.33;1.00;;;16.00;65.60;;;;;;10455035;28;20021;-57
2020/12/05 01:24:20;;;;;;;2.03;0.90;;;15.90;65.70;;;;;;10455072;28;20064;-57
2020/12/05 01:29:20;;;;;;;1.30;0.90;;;15.90;65.90;;;;;;10454761;28;20120;-56
2020/12/05 01:34:21;;;;;;;1.75;1.05;;;15.90;65.50;;;;;;10470157;28;20096;-57
2020/12/05 01:39:22;;;;;;;1.40;1.00;;;15.90;65.50;;;;;;10453085;28;20045;-56
2020/12/05 01:44:23;;;;;;;1.77;1.00;;;15.90;65.60;;;;;;10459183;28;20017;-57
2020/12/05 01:49:24;;;;;;;1.75;1.10;;;15.90;66.20;;;;;;10454280;28;20021;-57
2020/12/05 01:54:25;;;;;;;2.00;1.10;;;15.80;65.70;;;;;;10453275;28;20033;-57
2020/12/05 01:59:26;;;;;;;1.90;0.80;;;15.80;65.40;;;;;;10454119;28;20500;-57
2020/12/05 02:04:53;;;;;;;1.75;0.90;;;15.80;65.50;;;;;;10462235;28;20124;-56
2020/12/05 02:09:56;;;;;;;1.40;0.68;;;15.80;65.60;;;;;;10458584;28;20116;-57
2020/12/05 02:15:31;;;;;;;1.65;0.90;;;15.80;65.50;;;;;;10450214;28;20047;-57
2020/12/05 02:20:36;;;;;;;1.70;1.15;;;15.70;65.30;;;;;;10433569;28;20044;-56
2020/12/05 02:25:37;;;;;;;0.70;0.60;;;15.70;65.40;;;;;;10453301;28;20091;-57
2020/12/05 02:30:38;;;;;;;2.00;1.20;;;15.70;65.30;;;;;;10456792;28;20032;-55
2020/12/05 02:35:39;;;;;;;1.30;0.80;;;15.70;65.40;;;;;;10461208;28;20049;-57
2020/12/05 02:40:40;;;;;;;1.63;0.88;;;15.70;65.30;;;;;;10465457;28;20063;-56
2020/12/05 02:45:41;;;;;;;1.30;0.80;;;15.60;65.40;;;;;;10453917;28;20066;-57
2020/12/05 02:50:42;;;;;;;1.67;1.00;;;15.70;65.50;;;;;;10458602;28;20550;-56
2020/12/05 02:55:43;;;;;;;1.40;1.00;;;15.60;65.60;;;;;;10460141;28;20104;-57
2020/12/05 03:00:43;;;;;;;2.10;1.17;;;15.60;65.40;;;;;;10475465;28;20082;-57
2020/12/05 03:05:44;;;;;;;1.05;0.75;;;15.60;65.30;;;;;;10458622;28;20390;-57
2020/12/05 03:10:45;;;;;;;2.35;1.15;;;15.50;65.30;;;;;;10453199;28;20047;-57
2020/12/05 03:15:45;;;;;;;1.58;1.00;;;15.50;65.20;;;;;;10459199;28;20039;-56
2020/12/05 03:20:46;;;;;;;1.80;0.90;;;15.50;65.20;;;;;;10458397;28;20108;-56
2020/12/05 03:25:47;;;;;;;2.30;1.30;;;15.50;65.40;;;;;;10459078;28;20021;-57
2020/12/05 03:30:47;;;;;;;1.85;1.25;;;15.50;65.30;;;;;;10458934;28;20025;-57
2020/12/05 03:35:48;;;;;;;2.35;1.23;;;15.50;65.20;;;;;;10458453;28;20048;-56
2020/12/05 03:40:49;;;;;;;1.35;1.00;;;15.40;65.20;;;;;;10453891;28;20037;-57
2020/12/05 03:45:49;;;;;;;1.23;0.80;;;15.40;65.30;;;;;;10458202;28;20068;-56
2020/12/05 03:50:50;;;;;;;2.22;1.30;;;15.40;65.30;;;;;;10456520;28;20029;-57
2020/12/05 03:55:52;;;;;;;2.30;0.98;;;15.40;65.30;;;;;;10457984;28;20108;-57
2020/12/05 04:00:53;;;;;;;1.35;0.88;;;15.40;65.30;;;;;;10448642;28;20027;-57
2020/12/05 04:05:54;;;;;;;1.83;1.23;;;15.30;65.30;;;;;;10455702;28;20039;-57
2020/12/05 04:10:54;;;;;;;2.92;1.30;;;15.30;65.40;;;;;;10457206;28;20043;-57
2020/12/05 04:15:55;;;;;;;1.73;1.10;;;15.40;65.40;;;;;;10453269;28;20033;-57
2020/12/05 04:20:56;;;;;;;1.80;1.00;;;15.30;65.30;;;;;;10457234;28;20151;-57
2020/12/05 04:25:57;;;;;;;2.40;1.33;;;15.30;65.10;;;;;;10456311;28;20449;-58
2020/12/05 04:30:58;;;;;;;1.95;1.10;;;15.30;65.40;;;;;;10456516;28;20036;-57
2020/12/05 04:35:59;;;;;;;2.00;0.88;;;15.20;65.20;;;;;;10450043;28;20040;-57
2020/12/05 04:41:01;;;;;;;0.98;0.85;;;15.30;65.20;;;;;;10461040;28;20037;-57
2020/12/05 04:46:03;;;;;;;2.17;1.25;;;15.20;65.20;;;;;;10450884;28;20044;-57
2020/12/05 04:51:04;;;;;;;0.88;0.70;;;15.20;65.10;;;;;;10455835;28;20040;-55
2020/12/05 04:56:05;;;;;;;2.50;0.95;;;15.20;65.20;;;;;;10471711;28;20032;-57
2020/12/05 05:01:06;;;;;;;2.00;1.00;;;15.20;65.10;;;;;;10474441;28;20112;-55
2020/12/05 05:06:07;;;;;;;1.40;1.00;;;15.30;65.00;;;;;;10470720;28;20033;-56
2020/12/05 05:11:11;;;;;;;1.88;1.20;;;15.40;64.70;;;;;;10462205;28;20420;-57
2020/12/05 05:16:14;;;;;;;1.75;1.02;;;15.70;63.60;;;;;;10458313;28;20380;-56
2020/12/05 05:21:39;;;;;;;1.63;0.82;;;16.20;62.40;;;;;;10464363;28;20056;-57
2020/12/05 05:26:41;;;;;;;1.73;0.90;;;16.50;61.50;;;;;;10460983;28;20099;-56
2020/12/05 05:31:55;;;;;;;1.88;1.25;;;16.70;60.90;;;;;;10445933;28;20033;-57
2020/12/05 05:36:56;;;;;;;1.63;1.25;;;16.80;60.60;;;;;;10433562;28;20089;-57
2020/12/05 05:41:57;;;;;;;1.38;0.93;;;16.90;60.30;;;;;;10486671;28;20082;-57
2020/12/05 05:46:57;;;;;;;1.48;0.90;;;17.00;60.20;;;;;;10469374;28;20021;-57
2020/12/05 05:52:03;;;;;;;1.55;0.95;;;17.10;60.00;;;;;;10477756;28;20104;-57
2020/12/05 05:57:15;;;;;;;1.75;1.02;;;17.10;59.80;;;;;;10475799;28;20087;-57
2020/12/05 06:02:16;;;;;;;2.08;0.70;;;17.20;59.50;;;;;;10475871;28;20029;-57
2020/12/05 06:07:19;;;;;;;1.63;0.90;;;17.30;59.30;;;;;;10476811;28;20033;-58
2020/12/05 06:12:22;;;;;;;1.85;0.95;;;17.40;59.00;;;;;;10469955;28;20465;-58
2020/12/05 06:17:23;;;;;;;2.80;1.38;;;17.40;58.80;;;;;;10468428;28;20116;-57
2020/12/05 06:22:50;;;;;;;4.25;1.45;;;17.40;59.00;;;;;;10445119;28;20060;-56
2020/12/05 06:27:57;;;;;;;3.83;1.20;;;17.40;58.90;;;;;;10472030;28;20473;-57
2020/12/05 06:32:58;;;;;;;4.43;1.20;;;17.40;59.20;;;;;;10477947;28;20041;-59
2020/12/05 06:37:59;;;;;;;3.58;1.17;;;17.40;59.70;;;;;;10460724;28;20049;-60
2020/12/05 06:43:09;;;;;;;3.58;1.20;;;17.30;60.10;;;;;;10465536;28;20170;-59
2020/12/05 06:48:10;;;;;;;2.38;1.23;;;17.30;60.50;;;;;;10474986;28;20044;-60
2020/12/05 06:53:19;;;;;;;3.33;1.10;;;17.10;61.10;;;;;;10460254;28;20542;-60
2020/12/05 06:58:29;;;;;;;3.38;1.40;;;17.00;61.40;;;;;;10460073;28;20393;-60
2020/12/05 07:03:31;;;;;;;2.38;0.98;;;17.00;61.40;;;;;;10459859;28;20033;-59
2020/12/05 07:08:38;;;;;;;6.82;1.80;;;16.90;61.80;;;;;;10458409;28;20021;-60
2020/12/05 07:13:48;;;;;;;10.63;2.05;;;16.90;62.10;;;;;;10457186;28;20485;-59
2020/12/05 07:18:57;;;;;;;5.97;1.50;;;16.80;62.20;;;;;;10461580;28;20449;-61
2020/12/05 07:23:58;;;;;;;6.40;1.55;;;16.80;62.20;;;;;;10461724;28;20500;-60
2020/12/05 07:28:59;;;;;;;5.72;1.30;;;16.80;62.30;;;;;;10461277;28;20052;-60
2020/12/05 07:34:00;;;;;;;4.55;1.42;;;16.80;62.30;;;;;;10457530;28;20049;-59
2020/12/05 07:39:03;;;;;;;5.63;1.42;;;16.80;62.50;;;;;;10441563;28;20158;-60
2020/12/05 07:44:04;;;;;;;4.35;1.40;;;16.80;62.40;;;;;;10460480;28;20035;-59
2020/12/05 07:49:11;;;;;;;3.88;1.38;;;16.80;62.50;;;;;;10459842;28;20025;-58
2020/12/05 07:54:12;;;;;;;7.28;1.50;;;16.80;62.20;;;;;;10462333;28;20078;-56
2020/12/05 07:59:12;;;;;;;4.38;1.60;;;16.90;63.00;;;;;;10459774;28;20102;-57
2020/12/05 08:04:35;;;;;;;10.30;2.17;;;16.90;64.00;;;;;;10457878;28;20021;-57
2020/12/05 08:09:38;;;;;;;15.95;2.42;;;16.90;64.30;;;;;;10450085;28;20120;-56
2020/12/05 08:14:43;;;;;;;10.05;1.67;;;16.80;64.20;;;;;;10456555;28;20029;-55
2020/12/05 08:19:44;;;;;;;11.02;2.38;;;17.00;64.30;;;;;;10457059;28;20029;-56
2020/12/05 08:24:54;;;;;;;5.10;1.58;;;17.50;62.90;;;;;;10457020;28;20036;-58
2020/12/05 08:29:57;;;;;;;3.35;1.20;;;17.80;61.90;;;;;;10435571;28;20037;-56
2020/12/05 08:35:06;;;;;;;6.15;1.55;;;18.00;61.30;;;;;;10456709;28;20033;-54
2020/12/05 08:40:07;;;;;;;7.25;1.75;;;18.10;61.20;;;;;;10459097;28;20064;-57
2020/12/05 08:45:19;;;;;;;8.55;2.10;;;18.20;61.00;;;;;;10461629;28;20032;-58
2020/12/05 08:50:25;;;;;;;8.23;2.28;;;18.20;60.80;;;;;;10474820;28;20039;-57
2020/12/05 08:55:28;;;;;;;7.47;2.03;;;18.30;60.70;;;;;;10474761;28;20028;-58
2020/12/05 09:00:32;;;;;;;3.40;1.45;;;18.40;60.60;;;;;;10455919;28;20064;-59
2020/12/05 09:05:45;;;;;;;6.45;1.80;;;18.30;60.80;;;;;;10445937;28;20039;-57
2020/12/05 09:10:46;;;;;;;8.18;2.08;;;18.30;61.10;;;;;;10460779;28;20025;-57
2020/12/05 09:16:02;;;;;;;7.22;2.15;;;18.10;61.30;;;;;;10462483;28;20029;-59
2020/12/05 09:21:17;;;;;;;8.55;3.00;;;18.00;61.70;;;;;;10457534;28;20040;-56
2020/12/05 09:26:18;;;;;;;9.93;2.33;;;18.00;61.60;;;;;;10470004;28;20025;-58
2020/12/05 09:31:19;;;;;;;8.20;2.38;;;18.00;61.70;;;;;;10463817;28;20029;-58
2020/12/05 09:36:19;;;;;;;12.00;2.78;;;17.90;61.70;;;;;;10451770;28;20101;-58
2020/12/05 09:41:20;;;;;;;7.13;2.25;;;17.80;61.60;;;;;;10459627;28;20048;-59
2020/12/05 09:46:21;;;;;;;7.22;1.65;;;17.60;62.10;;;;;;10450482;28;20064;-57
2020/12/05 09:51:21;;;;;;;7.28;2.40;;;17.70;61.70;;;;;;10462790;28;20056;-57
2020/12/05 09:56:22;;;;;;;9.48;2.58;;;17.70;61.40;;;;;;10484250;28;20028;-56
2020/12/05 10:01:26;;;;;;;5.57;2.17;;;17.80;61.10;;;;;;10463296;28;20567;-57
2020/12/05 10:06:27;;;;;;;6.32;2.35;;;17.70;61.40;;;;;;10444036;28;20020;-55
2020/12/05 10:11:28;;;;;;;15.27;2.92;;;17.60;62.20;;;;;;10443796;28;20108;-56
2020/12/05 10:16:28;;;;;;;14.35;3.60;;;17.50;63.50;;;;;;10416419;28;20448;-57
2020/12/05 10:21:29;;;;;;;20.42;3.08;;;17.60;62.80;;;;;;10449829;28;20543;-56
2020/12/05 10:26:30;;;;;;;16.90;4.18;;;17.60;65.20;;;;;;10427205;28;20394;-55
2020/12/05 10:31:31;;;;;;;29.13;4.53;;;17.50;65.90;;;;;;10461262;28;20031;-56
2020/12/05 10:36:31;;;;;;;17.65;4.63;;;17.40;66.60;;;;;;10443399;28;20116;-55
2020/12/05 10:41:34;;;;;;;16.35;3.55;;;17.50;66.80;;;;;;10441245;28;20167;-54
2020/12/05 10:46:44;;;;;;;20.92;4.00;;;17.50;67.20;;;;;;10465332;28;20500;-54
2020/12/05 10:51:47;;;;;;;18.52;3.75;;;17.50;67.10;;;;;;10476524;28;20036;-57
2020/12/05 10:56:48;;;;;;;29.85;4.53;;;17.30;67.50;;;;;;10480523;28;20039;-55
2020/12/05 11:01:49;;;;;;;20.35;4.18;;;17.30;67.40;;;;;;10480344;28;20116;-56
2020/12/05 11:06:50;;;;;;;26.15;4.63;;;17.30;67.60;;;;;;10472273;28;20025;-57
2020/12/05 11:11:51;;;;;;;16.20;3.40;;;17.30;68.10;;;;;;10466990;28;20404;-57
2020/12/05 11:16:51;;;;;;;17.00;3.67;;;17.30;68.10;;;;;;10463491;28;20043;-57
2020/12/05 11:21:52;;;;;;;28.38;5.45;;;17.20;67.80;;;;;;10461077;28;20107;-57
2020/12/05 11:26:53;;;;;;;17.50;4.50;;;17.20;67.90;;;;;;10461207;28;20082;-56
2020/12/05 11:31:54;;;;;;;23.25;4.45;;;17.20;68.40;;;;;;10457455;28;20064;-58
2020/12/05 11:36:55;;;;;;;14.10;3.17;;;17.10;68.80;;;;;;10439525;28;20053;-58
2020/12/05 11:41:56;;;;;;;14.95;3.58;;;17.10;68.90;;;;;;10436576;28;20501;-57
2020/12/05 11:46:56;;;;;;;15.27;3.60;;;17.00;69.20;;;;;;10450567;28;20056;-57
2020/12/05 11:51:57;;;;;;;13.98;3.53;;;16.90;69.90;;;;;;10485947;28;20028;-60
2020/12/05 11:56:58;;;;;;;15.43;3.33;;;17.00;70.20;;;;;;10487360;28;20021;-59
2020/12/05 12:01:59;;;;;;;18.73;3.30;;;17.00;70.10;;;;;;10480569;28;20079;-58
2020/12/05 12:06:59;;;;;;;23.27;4.28;;;16.90;69.50;;;;;;10464966;28;20035;-61
2020/12/05 12:12:01;;;;;;;23.40;5.22;;;16.90;69.40;;;;;;10476540;28;20112;-58
2020/12/05 12:17:01;;;;;;;20.65;4.35;;;16.80;68.90;;;;;;10462177;28;20029;-58
2020/12/05 12:22:02;;;;;;;15.25;3.00;;;16.70;69.30;;;;;;10462477;28;20033;-58
2020/12/05 12:27:03;;;;;;;19.98;3.97;;;16.50;69.20;;;;;;10481675;28;20040;-58
2020/12/05 12:32:04;;;;;;;13.57;4.60;;;16.50;69.20;;;;;;10464568;28;20049;-56
2020/12/05 12:37:04;;;;;;;15.02;3.15;;;16.40;69.20;;;;;;10455079;28;20060;-59
2020/12/05 12:42:05;;;;;;;13.75;3.47;;;16.30;69.20;;;;;;10475923;28;20120;-58
2020/12/05 12:52:08;;;;;;;9.75;2.33;;;16.20;69.30;;;;;;10455706;28;20056;-58
2020/12/05 12:57:08;;;;;;;8.63;3.10;;;16.20;69.20;;;;;;10455630;28;20025;-58
2020/12/05 13:02:09;;;;;;;12.43;3.03;;;16.20;69.00;;;;;;10452022;28;20444;-58
2020/12/05 13:07:10;;;;;;;10.27;2.88;;;16.10;68.90;;;;;;10454869;28;20104;-58
2020/12/05 13:12:11;;;;;;;11.55;3.20;;;16.10;68.90;;;;;;10455212;28;20056;-58
2020/12/05 13:17:11;;;;;;;9.88;3.00;;;16.10;69.00;;;;;;10455037;28;20546;-58
2020/12/05 13:22:12;;;;;;;7.47;2.47;;;16.10;68.90;;;;;;10453521;28;20059;-58
2020/12/05 13:27:13;;;;;;;6.47;2.05;;;16.00;68.90;;;;;;10451391;28;20025;-58
2020/12/05 13:32:13;;;;;;;12.45;3.20;;;16.00;68.90;;;;;;10445925;28;20061;-58
2020/12/05 13:37:14;;;;;;;11.00;3.03;;;16.00;68.90;;;;;;10450960;28;20565;-58
2020/12/05 13:42:17;;;;;;;5.65;2.30;;;15.90;68.80;;;;;;10448228;28;20037;-58
2020/12/05 13:47:18;;;;;;;7.15;2.10;;;15.90;68.70;;;;;;10454579;28;20024;-58
2020/12/05 13:52:19;;;;;;;13.18;2.92;;;15.90;68.60;;;;;;10454259;28;20029;-58
2020/12/05 13:57:20;;;;;;;4.68;2.08;;;15.90;68.60;;;;;;10449833;28;20033;-58
2020/12/05 14:02:21;;;;;;;7.13;1.52;;;15.80;68.60;;;;;;10462456;28;20033;-58
2020/12/05 14:07:21;;;;;;;4.78;2.22;;;15.80;68.50;;;;;;10454973;28;20033;-58
2020/12/05 14:12:24;;;;;;;7.72;2.05;;;15.80;68.50;;;;;;10461626;28;20113;-58
2020/12/05 14:17:25;;;;;;;6.78;2.50;;;15.80;68.50;;;;;;10461911;28;20116;-58
2020/12/05 14:22:26;;;;;;;6.32;2.05;;;15.70;68.30;;;;;;10461814;28;20117;-58
2020/12/05 14:27:26;;;;;;;4.88;1.60;;;15.70;68.40;;;;;;10460083;28;20091;-58
2020/12/05 14:32:27;;;;;;;6.00;1.92;;;15.70;68.40;;;;;;10461334;28;20029;-58
2020/12/05 14:37:28;;;;;;;7.68;2.28;;;15.70;68.50;;;;;;10460934;28;20069;-58
2020/12/05 14:42:29;;;;;;;7.60;1.67;;;15.70;68.50;;;;;;10466207;28;20505;-58
2020/12/05 14:47:29;;;;;;;4.30;2.10;;;15.60;68.50;;;;;;10460660;28;20033;-59
2020/12/05 14:52:31;;;;;;;3.60;1.75;;;15.60;68.50;;;;;;10460634;28;20047;-58
2020/12/05 14:57:32;;;;;;;4.25;1.77;;;15.60;68.50;;;;;;10458683;28;20021;-59
2020/12/05 15:02:33;;;;;;;5.22;2.25;;;15.60;68.50;;;;;;10460202;28;20420;-58
2020/12/05 15:07:33;;;;;;;5.40;2.08;;;15.50;68.40;;;;;;10452593;28;20028;-58
2020/12/05 15:12:34;;;;;;;5.13;1.80;;;15.50;68.40;;;;;;10459031;28;20040;-58
2020/12/05 15:17:35;;;;;;;3.95;1.85;;;15.50;68.40;;;;;;10475061;28;20554;-58
2020/12/05 15:22:36;;;;;;;2.67;1.40;;;15.50;68.40;;;;;;10459384;28;20079;-58
2020/12/05 15:27:37;;;;;;;4.03;1.45;;;15.50;68.40;;;;;;10457861;28;20033;-58
2020/12/05 15:32:39;;;;;;;3.88;2.05;;;15.60;68.20;;;;;;10453079;28;20090;-58
2020/12/05 15:37:40;;;;;;;3.35;1.67;;;15.50;68.10;;;;;;10456115;28;20044;-58
2020/12/05 15:42:41;;;;;;;3.83;1.70;;;15.50;68.00;;;;;;10463854;28;20497;-58
2020/12/05 15:47:42;;;;;;;5.82;1.90;;;15.50;68.00;;;;;;10473287;28;20037;-58
2020/12/05 15:52:43;;;;;;;7.47;2.00;;;15.50;68.00;;;;;;10457997;28;20408;-58
2020/12/05 15:57:44;;;;;;;4.65;1.90;;;15.50;68.00;;;;;;10435062;28;20119;-58
2020/12/05 16:02:45;;;;;;;5.43;2.22;;;15.60;67.70;;;;;;10455673;28;20028;-58
2020/12/05 16:07:46;;;;;;;3.00;1.50;;;15.70;67.50;;;;;;10450232;28;20056;-58
2020/12/05 16:12:47;;;;;;;4.03;1.98;;;15.70;67.50;;;;;;10471267;28;20025;-58
2020/12/05 16:17:48;;;;;;;6.70;1.80;;;15.60;67.50;;;;;;10456464;28;20480;-58
2020/12/05 16:22:50;;;;;;;3.72;1.90;;;15.70;67.30;;;;;;10457015;28;20039;-58
2020/12/05 16:27:50;;;;;;;5.07;2.60;;;15.70;67.10;;;;;;10452807;28;20028;-58
2020/12/05 16:32:51;;;;;;;3.22;1.55;;;15.70;67.00;;;;;;10456086;28;20031;-58
2020/12/05 16:37:52;;;;;;;3.83;1.52;;;15.70;67.10;;;;;;10455805;28;20114;-58
2020/12/05 16:42:53;;;;;;;5.50;1.70;;;15.70;67.80;;;;;;10461488;28;20029;-58
2020/12/05 16:47:54;;;;;;;2.63;1.52;;;15.70;67.20;;;;;;10454897;28;20020;-58
2020/12/05 16:52:54;;;;;;;5.28;2.00;;;15.70;67.20;;;;;;10455890;28;20078;-59
2020/12/05 16:57:55;;;;;;;2.63;1.35;;;15.70;67.00;;;;;;10455762;28;20021;-58
2020/12/05 17:02:56;;;;;;;2.80;1.60;;;15.70;67.00;;;;;;10454062;28;20079;-58
2020/12/05 17:07:57;;;;;;;2.42;1.33;;;15.70;66.90;;;;;;10447766;28;20029;-58
2020/12/05 17:12:57;;;;;;;3.42;2.15;;;15.70;66.80;;;;;;10455039;28;20044;-58
2020/12/05 17:17:58;;;;;;;3.00;1.40;;;15.70;66.80;;;;;;10455598;28;20044;-58
2020/12/05 17:22:59;;;;;;;2.10;1.73;;;15.60;66.70;;;;;;10454993;28;20029;-58
2020/12/05 17:27:59;;;;;;;3.38;2.08;;;15.70;66.70;;;;;;10454962;28;20090;-58
2020/12/05 17:33:00;;;;;;;3.78;1.83;;;15.70;66.40;;;;;;10456961;28;20111;-58
2020/12/05 17:38:01;;;;;;;2.75;1.52;;;15.70;66.30;;;;;;10461175;28;20126;-58
2020/12/05 17:43:02;;;;;;;3.13;1.85;;;15.70;66.30;;;;;;10468805;28;20103;-58
2020/12/05 17:48:02;;;;;;;3.33;1.88;;;15.70;66.40;;;;;;10463020;28;20096;-58
2020/12/05 17:53:04;;;;;;;3.42;1.95;;;15.70;66.50;;;;;;10463158;28;20107;-59
2020/12/05 17:58:04;;;;;;;3.60;1.70;;;15.70;66.50;;;;;;10456475;28;20052;-58
2020/12/05 18:03:05;;;;;;;5.90;1.90;;;15.70;66.20;;;;;;10461131;28;20029;-58
2020/12/05 18:08:07;;;;;;;2.38;1.58;;;15.70;66.10;;;;;;10459862;28;20030;-59
2020/12/05 18:13:08;;;;;;;2.38;1.73;;;15.70;65.90;;;;;;10453665;28;20029;-59
2020/12/05 18:18:09;;;;;;;3.58;1.88;;;15.80;65.80;;;;;;10462087;28;20056;-59
2020/12/05 18:23:09;;;;;;;4.88;2.42;;;15.80;65.80;;;;;;10461860;28;20107;-57
2020/12/05 18:28:10;;;;;;;2.97;1.95;;;15.80;65.60;;;;;;10461661;28;20037;-58
2020/12/05 18:33:11;;;;;;;3.15;2.10;;;15.80;65.90;;;;;;10461421;28;20033;-59
2020/12/05 18:38:12;;;;;;;3.25;1.70;;;15.80;65.60;;;;;;10459719;28;20099;-59
2020/12/05 18:43:12;;;;;;;2.92;1.70;;;15.70;65.70;;;;;;10461249;28;20044;-59
2020/12/05 18:48:13;;;;;;;3.03;1.75;;;15.80;65.60;;;;;;10462530;28;20425;-58
2020/12/05 18:53:14;;;;;;;3.83;1.85;;;15.80;65.50;;;;;;10460295;28;20032;-59
2020/12/05 18:58:15;;;;;;;2.78;2.05;;;15.70;65.50;;;;;;10459933;28;20033;-59
2020/12/05 19:03:15;;;;;;;3.05;1.90;;;15.70;65.60;;;;;;10458987;28;20060;-58
2020/12/05 19:08:16;;;;;;;2.08;1.80;;;15.70;65.00;;;;;;10459563;28;20408;-57
2020/12/05 19:13:18;;;;;;;2.42;1.30;;;15.80;64.50;;;;;;10462815;28;20388;-58
2020/12/05 19:18:19;;;;;;;5.18;2.75;;;15.90;64.60;;;;;;10459581;28;20033;-57
2020/12/05 19:23:20;;;;;;;8.55;1.70;;;15.90;64.40;;;;;;10459710;28;20158;-57
2020/12/05 19:28:21;;;;;;;7.30;2.42;;;15.90;64.60;;;;;;10458340;28;20082;-57
2020/12/05 19:33:23;;;;;;;12.25;3.00;;;16.00;64.50;;;;;;10458812;28;20082;-58
2020/12/05 19:38:23;;;;;;;14.07;2.38;;;16.00;65.00;;;;;;10457274;28;20041;-59
2020/12/05 19:43:25;;;;;;;10.10;2.95;;;16.00;65.20;;;;;;10461872;28;20036;-60
2020/12/05 19:48:25;;;;;;;10.52;4.40;;;16.00;65.30;;;;;;10443641;28;20378;-57
2020/12/05 19:53:26;;;;;;;9.15;2.70;;;15.90;65.70;;;;;;10463224;28;20025;-59
2020/12/05 19:58:27;;;;;;;8.73;2.60;;;15.90;65.70;;;;;;10471963;28;20032;-59
2020/12/05 20:03:27;;;;;;;7.85;2.53;;;15.90;65.60;;;;;;10466990;28;20112;-58
2020/12/05 20:08:28;;;;;;;9.85;3.60;;;15.80;65.80;;;;;;10460296;28;20057;-58
2020/12/05 20:13:29;;;;;;;14.10;3.10;;;15.90;66.20;;;;;;10464619;28;20493;-59
2020/12/05 20:18:30;;;;;;;8.60;2.85;;;15.90;66.20;;;;;;10458113;28;20122;-57
2020/12/05 20:23:31;;;;;;;6.80;3.10;;;15.80;66.20;;;;;;10459088;28;20031;-56
2020/12/05 20:28:33;;;;;;;8.65;3.22;;;15.80;66.20;;;;;;10458022;28;20359;-56
2020/12/05 20:33:34;;;;;;;6.43;3.22;;;15.70;66.30;;;;;;10457166;28;20091;-56
2020/12/05 20:38:35;;;;;;;12.00;3.28;;;15.60;66.50;;;;;;10455323;28;20160;-56
2020/12/05 20:43:36;;;;;;;11.45;3.75;;;15.50;66.60;;;;;;10459198;28;20443;-57
2020/12/05 20:48:37;;;;;;;7.15;3.10;;;15.50;67.60;;;;;;10455191;28;20041;-57
2020/12/05 20:53:38;;;;;;;11.55;3.15;;;15.40;68.20;;;;;;10434166;28;20501;-56
2020/12/05 20:58:39;;;;;;;5.97;2.50;;;15.40;68.40;;;;;;10457835;28;20064;-57
2020/12/05 21:03:40;;;;;;;8.40;2.88;;;15.40;68.50;;;;;;10471022;28;20039;-57
2020/12/05 21:08:41;;;;;;;5.00;2.65;;;15.30;68.50;;;;;;10476884;28;20098;-58
2020/12/05 21:13:41;;;;;;;8.38;3.88;;;15.30;67.20;;;;;;10464176;28;20059;-57
2020/12/05 21:18:42;;;;;;;6.80;3.30;;;15.30;67.40;;;;;;10457969;28;20462;-57
2020/12/05 21:23:43;;;;;;;4.72;2.88;;;15.20;67.10;;;;;;10464426;28;20100;-57
2020/12/05 21:28:44;;;;;;;6.45;2.78;;;15.20;67.10;;;;;;10465925;28;20020;-58
2020/12/05 21:33:45;;;;;;;6.78;3.58;;;15.20;67.00;;;;;;10430817;28;20481;-58
2020/12/05 21:38:46;;;;;;;6.55;3.00;;;15.10;67.00;;;;;;10453287;28;20049;-57
2020/12/05 21:43:46;;;;;;;7.30;3.70;;;15.10;67.00;;;;;;10475600;28;20120;-57
2020/12/05 21:48:47;;;;;;;5.72;2.83;;;15.10;67.00;;;;;;10454626;28;20481;-57
2020/12/05 21:53:50;;;;;;;6.63;3.20;;;15.00;67.40;;;;;;10454629;28;20137;-58
2020/12/05 21:58:51;;;;;;;5.53;3.53;;;15.00;66.70;;;;;;10448030;28;20026;-57
2020/12/05 22:03:51;;;;;;;7.88;3.42;;;15.00;66.70;;;;;;10452120;28;20029;-58
2020/12/05 22:08:52;;;;;;;14.25;3.28;;;15.00;66.70;;;;;;10453459;28;20469;-58
2020/12/05 22:13:53;;;;;;;4.22;2.85;;;14.90;66.60;;;;;;10454233;28;20370;-57
2020/12/05 22:18:54;;;;;;;4.93;2.80;;;14.90;66.60;;;;;;10474084;28;20376;-57
2020/12/05 22:23:54;;;;;;;4.18;2.92;;;14.90;66.60;;;;;;10454609;28;20541;-57
2020/12/05 22:28:55;;;;;;;5.72;3.33;;;14.90;66.60;;;;;;10458286;28;20060;-57
2020/12/05 22:33:56;;;;;;;4.50;2.78;;;14.90;66.60;;;;;;10461370;28;20108;-57
2020/12/05 22:38:56;;;;;;;6.38;2.60;;;14.80;66.60;;;;;;10461154;28;20045;-57
2020/12/05 22:43:57;;;;;;;7.43;3.10;;;14.80;66.50;;;;;;10466290;28;20033;-57
2020/12/05 22:48:58;;;;;;;5.25;2.60;;;14.80;66.50;;;;;;10460365;28;20059;-58
2020/12/05 22:53:58;;;;;;;4.40;3.20;;;14.80;66.40;;;;;;10460676;28;20438;-57
2020/12/05 22:58:59;;;;;;;5.97;3.05;;;14.80;66.30;;;;;;10459246;28;20108;-57
2020/12/05 23:04:00;;;;;;;6.68;3.20;;;14.70;66.20;;;;;;10473712;28;20113;-58
2020/12/05 23:09:00;;;;;;;4.30;2.70;;;14.70;66.20;;;;;;10459569;28;20053;-58
2020/12/05 23:14:01;;;;;;;4.22;2.20;;;14.70;66.10;;;;;;10459382;28;20111;-57
2020/12/05 23:19:05;;;;;;;8.07;3.95;;;14.70;66.10;;;;;;10457987;28;20032;-57
2020/12/05 23:24:11;;;;;;;4.15;3.17;;;14.70;66.00;;;;;;10459173;28;20377;-58
2020/12/05 23:29:15;;;;;;;5.50;3.00;;;14.60;66.00;;;;;;10454688;28;20479;-57
2020/12/05 23:34:19;;;;;;;6.55;3.08;;;14.60;65.90;;;;;;10454583;28;20462;-57
2020/12/05 23:39:24;;;;;;;7.07;3.13;;;14.60;66.00;;;;;;10458293;28;20056;-57
2020/12/05 23:44:26;;;;;;;5.00;3.10;;;14.60;65.90;;;;;;10463824;28;20071;-57
2020/12/05 23:49:27;;;;;;;5.30;3.08;;;14.60;65.90;;;;;;10456857;28;20051;-55
2020/12/05 23:54:27;;;;;;;3.75;2.70;;;14.50;65.90;;;;;;10458269;28;20112;-58
2020/12/05 23:59:28;;;;;;;5.28;3.10;;;14.50;65.90;;;;;;10448740;28;20060;-58
